createdAt,value
2018-03-31T00:01:58.458Z,10.57
2018-03-31T00:04:25.973Z,10.93
2018-03-31T00:06:53.461Z,9.13
2018-03-31T00:09:20.977Z,9.13
2018-03-31T00:11:48.485Z,9.20
2018-03-31T00:14:16.091Z,8.60
2018-03-31T00:16:43.564Z,9.03
2018-03-31T00:19:12.640Z,8.87
2018-03-31T00:21:40.469Z,9.57
2018-03-31T00:24:07.935Z,9.37
2018-03-31T00:26:36.194Z,9.93
2018-03-31T00:29:03.679Z,9.17
2018-03-31T00:31:31.158Z,9.50
2018-03-31T00:33:58.652Z,9.20
2018-03-31T00:36:27.665Z,8.90
2018-03-31T00:38:55.160Z,9.37
2018-03-31T00:41:22.680Z,7.93
2018-03-31T00:43:50.524Z,8.77
2018-03-31T00:46:18.778Z,9.30
2018-03-31T00:48:46.352Z,9.17
2018-03-31T00:51:14.589Z,9.20
2018-03-31T00:53:42.341Z,8.80
2018-03-31T00:56:09.844Z,7.60
2018-03-31T00:58:37.332Z,7.80
2018-03-31T01:01:05.594Z,8.47
2018-03-31T01:03:33.889Z,7.83
2018-03-31T01:06:01.387Z,8.33
2018-03-31T01:08:28.878Z,8.17
2018-03-31T01:10:56.421Z,6.97
2018-03-31T01:13:23.890Z,7.73
2018-03-31T01:15:51.366Z,8.20
2018-03-31T01:18:19.848Z,8.10
2018-03-31T01:20:48.092Z,8.30
2018-03-31T01:23:15.573Z,7.47
2018-03-31T01:25:43.072Z,8.47
2018-03-31T01:28:10.795Z,6.77
2018-03-31T01:30:39.762Z,7.67
2018-03-31T01:33:07.253Z,7.83
2018-03-31T01:35:35.516Z,8.13
2018-03-31T01:38:03.032Z,7.90
2018-03-31T01:40:30.524Z,7.70
2018-03-31T01:42:58.016Z,7.43
2018-03-31T01:45:27.201Z,8.07
2018-03-31T01:47:56.269Z,7.40
2018-03-31T01:50:23.745Z,8.10
2018-03-31T01:52:51.570Z,8.37
2018-03-31T01:55:19.659Z,7.60
2018-03-31T01:57:47.149Z,7.80
2018-03-31T02:00:14.637Z,8.07
2018-03-31T02:02:43.663Z,6.43
2018-03-31T02:05:11.153Z,7.43
2018-03-31T02:07:38.635Z,7.13
2018-03-31T02:10:06.468Z,7.83
2018-03-31T02:12:33.950Z,8.10
2018-03-31T02:15:01.430Z,7.97
2018-03-31T02:17:29.716Z,8.23
2018-03-31T02:19:58.317Z,7.63
2018-03-31T02:22:25.825Z,7.67
2018-03-31T02:24:55.100Z,7.70
2018-03-31T02:27:23.596Z,7.53
2018-03-31T02:29:52.608Z,7.43
2018-03-31T02:32:21.093Z,7.63
2018-03-31T02:34:48.588Z,8.20
2018-03-31T02:37:16.070Z,8.17
2018-03-31T02:39:43.556Z,7.27
2018-03-31T02:42:11.057Z,6.93
2018-03-31T02:44:38.555Z,8.07
2018-03-31T02:47:06.922Z,7.50
2018-03-31T02:52:07.093Z,8.40
2018-03-31T02:54:34.580Z,8.73
2018-03-31T02:57:02.091Z,8.27
2018-03-31T02:59:29.599Z,6.80
2018-03-31T03:01:58.638Z,8.27
2018-03-31T03:04:26.213Z,8.87
2018-03-31T03:06:54.165Z,11.40
2018-03-31T03:09:21.752Z,10.37
2018-03-31T03:11:49.555Z,7.87
2018-03-31T03:14:17.914Z,9.53
2018-03-31T03:16:45.404Z,7.73
2018-03-31T03:19:14.324Z,8.33
2018-03-31T03:21:41.816Z,8.50
2018-03-31T03:24:09.688Z,9.60
2018-03-31T03:26:37.164Z,7.53
2018-03-31T03:29:04.656Z,7.50
2018-03-31T03:31:32.148Z,8.27
2018-03-31T03:34:00.458Z,9.27
2018-03-31T03:36:27.931Z,8.60
2018-03-31T03:38:57.092Z,8.83
2018-03-31T03:41:24.605Z,7.67
2018-03-31T03:43:52.862Z,9.53
2018-03-31T03:46:21.109Z,9.00
2018-03-31T03:48:48.873Z,7.93
2018-03-31T03:51:16.344Z,8.87
2018-03-31T03:53:44.747Z,8.13
2018-03-31T03:56:13.237Z,8.40
2018-03-31T03:58:41.487Z,8.93
2018-03-31T04:01:08.979Z,8.40
2018-03-31T04:03:37.546Z,8.60
2018-03-31T04:06:05.825Z,8.90
2018-03-31T04:08:34.368Z,8.10
2018-03-31T04:11:01.856Z,7.60
2018-03-31T04:13:30.213Z,8.67
2018-03-31T04:15:57.679Z,7.30
2018-03-31T04:18:25.800Z,7.10
2018-03-31T04:20:53.640Z,9.20
2018-03-31T04:23:21.123Z,9.37
2018-03-31T04:25:50.096Z,9.20
2018-03-31T04:28:17.596Z,7.93
2018-03-31T04:30:45.095Z,8.60
2018-03-31T04:33:12.578Z,8.63
2018-03-31T04:35:42.039Z,8.60
2018-03-31T04:38:10.050Z,7.80
2018-03-31T04:40:37.655Z,8.60
2018-03-31T04:43:05.484Z,8.80
2018-03-31T04:45:32.992Z,10.10
2018-03-31T04:48:00.512Z,9.47
2018-03-31T04:50:28.761Z,11.50
2018-03-31T04:52:57.228Z,8.83
2018-03-31T04:55:24.888Z,8.57
2018-03-31T04:57:52.689Z,9.43
2018-03-31T05:00:20.948Z,8.67
2018-03-31T05:02:48.885Z,9.13
2018-03-31T05:05:16.349Z,9.17
2018-03-31T05:07:44.169Z,9.70
2018-03-31T05:10:12.493Z,9.33
2018-03-31T05:12:40.002Z,10.60
2018-03-31T05:15:08.432Z,8.33
2018-03-31T05:17:35.900Z,8.93
2018-03-31T05:20:03.417Z,7.90
2018-03-31T05:22:31.820Z,10.20
2018-03-31T05:24:59.721Z,8.80
2018-03-31T05:27:27.247Z,9.40
2018-03-31T05:29:54.920Z,8.97
2018-03-31T05:32:22.400Z,9.47
2018-03-31T05:34:50.032Z,8.90
2018-03-31T05:37:17.624Z,9.70
2018-03-31T05:39:45.100Z,8.57
2018-03-31T05:42:12.610Z,9.40
2018-03-31T05:44:41.015Z,8.90
2018-03-31T05:47:08.488Z,8.10
2018-03-31T05:49:35.964Z,9.00
2018-03-31T05:52:04.321Z,9.73
2018-03-31T05:54:31.797Z,8.70
2018-03-31T05:57:00.103Z,8.73
2018-03-31T05:59:27.596Z,8.83
2018-03-31T06:01:55.880Z,8.30
2018-03-31T06:04:23.387Z,8.40
2018-03-31T06:06:53.319Z,7.90
2018-03-31T06:09:20.812Z,7.93
2018-03-31T06:11:48.315Z,7.50
2018-03-31T06:14:15.853Z,8.87
2018-03-31T06:16:43.504Z,7.70
2018-03-31T06:19:11.054Z,7.20
2018-03-31T06:21:38.527Z,9.10
2018-03-31T06:24:06.096Z,9.00
2018-03-31T06:26:34.540Z,7.77
2018-03-31T06:29:02.043Z,8.77
2018-03-31T06:31:31.767Z,8.83
2018-03-31T06:33:59.280Z,7.77
2018-03-31T06:36:26.844Z,7.73
2018-03-31T06:38:55.096Z,8.30
2018-03-31T06:41:22.580Z,8.37
2018-03-31T06:43:50.093Z,7.23
2018-03-31T06:46:18.351Z,8.90
2018-03-31T06:48:46.609Z,8.00
2018-03-31T06:51:14.312Z,7.63
2018-03-31T06:53:42.590Z,7.53
2018-03-31T06:56:11.637Z,8.03
2018-03-31T06:58:39.201Z,7.80
2018-03-31T07:01:06.675Z,8.30
2018-03-31T07:03:35.310Z,7.60
2018-03-31T07:06:03.716Z,7.43
2018-03-31T07:08:31.194Z,7.70
2018-03-31T07:10:59.556Z,7.33
2018-03-31T07:13:27.351Z,7.73
2018-03-31T07:15:54.828Z,7.90
2018-03-31T07:18:22.305Z,7.60
2018-03-31T07:20:50.564Z,7.00
2018-03-31T07:23:18.057Z,7.37
2018-03-31T07:25:45.640Z,7.50
2018-03-31T07:28:13.129Z,8.40
2018-03-31T07:30:41.178Z,7.80
2018-03-31T07:33:08.708Z,8.03
2018-03-31T07:35:36.177Z,8.80
2018-03-31T07:38:03.673Z,9.20
2018-03-31T07:40:31.194Z,8.10
2018-03-31T07:42:58.960Z,8.07
2018-03-31T07:45:26.458Z,8.50
2018-03-31T07:47:54.096Z,7.03
2018-03-31T07:50:21.559Z,7.33
2018-03-31T07:52:49.558Z,7.67
2018-03-31T07:55:17.217Z,8.83
2018-03-31T07:57:44.707Z,8.10
2018-03-31T08:00:14.101Z,9.00
2018-03-31T08:02:42.532Z,7.17
2018-03-31T08:05:10.819Z,8.77
2018-03-31T08:07:38.094Z,7.50
2018-03-31T08:10:06.700Z,7.90
2018-03-31T08:12:35.092Z,7.53
2018-03-31T08:15:03.875Z,8.47
2018-03-31T08:17:32.197Z,8.10
2018-03-31T08:19:59.673Z,7.70
2018-03-31T08:22:27.156Z,8.10
2018-03-31T08:24:54.686Z,8.27
2018-03-31T08:27:23.804Z,8.17
2018-03-31T08:29:51.275Z,8.60
2018-03-31T08:32:19.617Z,8.03
2018-03-31T08:34:47.275Z,7.33
2018-03-31T08:37:14.836Z,7.27
2018-03-31T08:39:42.309Z,7.20
2018-03-31T08:42:10.118Z,7.13
2018-03-31T08:44:38.876Z,8.27
2018-03-31T08:47:06.389Z,7.23
2018-03-31T08:49:35.092Z,7.33
2018-03-31T08:52:02.573Z,7.50
2018-03-31T08:54:30.085Z,7.30
2018-03-31T08:56:58.389Z,6.80
2018-03-31T08:59:25.878Z,7.50
2018-03-31T09:01:54.221Z,7.60
2018-03-31T09:04:21.714Z,7.03
2018-03-31T09:06:49.306Z,7.90
2018-03-31T09:09:18.481Z,7.83
2018-03-31T09:11:46.008Z,9.40
2018-03-31T09:14:17.505Z,8.30
2018-03-31T09:16:44.992Z,7.40
2018-03-31T09:19:12.640Z,7.70
2018-03-31T09:21:41.927Z,6.80
2018-03-31T09:24:09.756Z,7.63
2018-03-31T09:26:37.912Z,8.30
2018-03-31T09:29:05.387Z,8.50
2018-03-31T09:31:32.899Z,10.00
2018-03-31T09:34:01.137Z,8.80
2018-03-31T09:36:28.762Z,8.40
2018-03-31T09:38:56.764Z,10.00
2018-03-31T09:41:24.813Z,10.83
2018-03-31T09:43:52.660Z,11.30
2018-03-31T09:46:21.704Z,12.50
2018-03-31T09:48:49.200Z,11.73
2018-03-31T09:51:17.464Z,11.00
2018-03-31T09:53:44.979Z,11.80
2018-03-31T09:56:12.468Z,10.43
2018-03-31T09:58:39.991Z,10.20
2018-03-31T10:01:07.780Z,11.10
2018-03-31T10:03:35.276Z,12.10
2018-03-31T10:06:02.833Z,9.93
2018-03-31T10:08:30.571Z,10.20
2018-03-31T10:10:58.055Z,10.80
2018-03-31T10:13:25.544Z,11.03
2018-03-31T10:15:54.131Z,13.03
2018-03-31T10:18:21.629Z,13.37
2018-03-31T10:20:49.124Z,14.00
2018-03-31T10:23:17.399Z,14.60
2018-03-31T10:25:45.870Z,13.10
2018-03-31T10:28:14.571Z,14.27
2018-03-31T10:30:42.913Z,14.83
2018-03-31T10:33:10.411Z,13.30
2018-03-31T10:35:38.755Z,11.97
2018-03-31T10:38:06.237Z,13.40
2018-03-31T10:40:33.779Z,13.27
2018-03-31T10:43:01.266Z,13.10
2018-03-31T10:45:28.775Z,13.07
2018-03-31T10:47:56.356Z,12.83
2018-03-31T10:50:24.268Z,14.47
2018-03-31T10:52:52.553Z,12.43
2018-03-31T10:55:20.805Z,14.60
2018-03-31T10:57:48.629Z,13.50
2018-03-31T11:00:16.544Z,14.73
2018-03-31T11:02:44.021Z,15.10
2018-03-31T11:05:13.004Z,15.00
2018-03-31T11:07:41.337Z,14.33
2018-03-31T11:10:09.679Z,16.40
2018-03-31T11:12:38.000Z,16.40
2018-03-31T11:15:06.021Z,17.50
2018-03-31T11:17:34.720Z,18.20
2018-03-31T11:20:02.228Z,19.07
2018-03-31T11:22:29.708Z,20.67
2018-03-31T11:24:57.189Z,19.60
2018-03-31T11:27:25.509Z,17.73
2018-03-31T11:29:52.988Z,15.77
2018-03-31T11:32:20.576Z,14.90
2018-03-31T11:34:48.040Z,14.07
2018-03-31T11:37:16.279Z,11.80
2018-03-31T11:39:43.815Z,13.83
2018-03-31T11:42:12.184Z,12.90
2018-03-31T11:44:39.704Z,11.40
2018-03-31T11:47:07.309Z,11.43
2018-03-31T11:49:34.978Z,12.43
2018-03-31T11:52:02.478Z,11.60
2018-03-31T11:54:29.960Z,10.90
2018-03-31T11:56:58.264Z,10.87
2018-03-31T11:59:25.754Z,12.57
2018-03-31T12:01:53.844Z,12.53
2018-03-31T12:04:21.688Z,11.30
2018-03-31T12:06:50.108Z,11.00
2018-03-31T12:09:17.610Z,11.10
2018-03-31T12:11:45.128Z,11.20
2018-03-31T12:14:12.628Z,10.90
2018-03-31T12:16:41.043Z,11.20
2018-03-31T12:19:08.544Z,12.47
2018-03-31T12:21:37.435Z,10.27
2018-03-31T12:24:05.705Z,10.37
2018-03-31T12:26:34.057Z,11.03
2018-03-31T12:29:01.540Z,11.40
2018-03-31T12:31:29.828Z,11.63
2018-03-31T12:33:58.824Z,11.00
2018-03-31T12:36:26.312Z,12.23
2018-03-31T12:38:54.174Z,14.00
2018-03-31T12:41:21.667Z,13.93
2018-03-31T12:43:49.216Z,12.90
2018-03-31T12:46:16.971Z,15.00
2018-03-31T12:48:44.443Z,15.17
2018-03-31T12:51:11.930Z,13.93
2018-03-31T12:53:40.281Z,12.47
2018-03-31T12:56:07.771Z,13.50
2018-03-31T12:58:35.235Z,12.70
2018-03-31T13:01:03.493Z,12.37
2018-03-31T13:03:30.981Z,11.53
2018-03-31T13:05:59.977Z,11.63
2018-03-31T13:08:28.215Z,10.93
2018-03-31T13:10:55.698Z,11.90
2018-03-31T13:13:23.236Z,10.17
2018-03-31T13:15:50.758Z,12.00
2018-03-31T13:18:18.236Z,11.07
2018-03-31T13:20:45.724Z,10.70
2018-03-31T13:23:13.260Z,10.80
2018-03-31T13:25:40.764Z,11.07
2018-03-31T13:28:09.009Z,10.30
2018-03-31T13:30:36.536Z,11.00
2018-03-31T13:33:04.044Z,11.20
2018-03-31T13:35:31.536Z,11.20
2018-03-31T13:38:00.061Z,10.23
2018-03-31T13:40:27.543Z,11.23
2018-03-31T13:42:55.020Z,10.10
2018-03-31T13:45:23.435Z,9.60
2018-03-31T13:47:51.008Z,11.63
2018-03-31T13:50:18.495Z,9.87
2018-03-31T13:52:45.989Z,10.90
2018-03-31T13:55:14.261Z,9.87
2018-03-31T13:57:42.520Z,11.27
2018-03-31T14:00:10.040Z,11.53
2018-03-31T14:02:37.634Z,10.93
2018-03-31T14:05:05.104Z,10.57
2018-03-31T14:07:33.440Z,10.60
2018-03-31T14:10:01.609Z,10.10
2018-03-31T14:12:29.043Z,10.60
2018-03-31T14:14:56.524Z,11.50
2018-03-31T14:17:24.056Z,10.97
2018-03-31T14:19:52.303Z,12.00
2018-03-31T14:22:19.796Z,10.63
2018-03-31T14:24:47.492Z,11.63
2018-03-31T14:27:14.978Z,12.67
2018-03-31T14:29:42.460Z,11.70
2018-03-31T14:32:11.008Z,12.20
2018-03-31T14:34:38.544Z,12.07
2018-03-31T14:37:06.246Z,11.90
2018-03-31T14:39:33.723Z,12.00
2018-03-31T14:42:01.224Z,11.67
2018-03-31T14:44:28.800Z,12.87
2018-03-31T14:46:56.393Z,11.83
2018-03-31T14:49:23.869Z,11.23
2018-03-31T14:51:52.940Z,11.87
2018-03-31T14:54:20.452Z,12.17
2018-03-31T14:56:47.964Z,11.53
2018-03-31T14:59:15.470Z,11.67
2018-03-31T15:01:43.164Z,12.37
2018-03-31T15:04:11.440Z,11.97
2018-03-31T15:06:38.979Z,11.90
2018-03-31T15:09:06.648Z,11.83
2018-03-31T15:11:34.132Z,12.40
2018-03-31T15:14:01.674Z,12.07
2018-03-31T15:16:29.959Z,13.07
2018-03-31T15:18:57.440Z,14.50
2018-03-31T15:21:24.936Z,14.53
2018-03-31T15:23:53.234Z,12.93
2018-03-31T15:26:20.778Z,13.57
2018-03-31T15:28:49.050Z,13.60
2018-03-31T15:31:17.297Z,12.20
2018-03-31T15:33:44.943Z,11.47
2018-03-31T15:36:15.209Z,12.80
2018-03-31T15:38:43.844Z,11.57
2018-03-31T15:41:11.329Z,13.60
2018-03-31T15:43:38.814Z,12.20
2018-03-31T15:46:07.080Z,11.80
2018-03-31T15:48:35.342Z,12.20
2018-03-31T15:51:02.833Z,13.10
2018-03-31T15:53:31.308Z,11.87
2018-03-31T15:55:59.659Z,13.30
2018-03-31T15:58:27.330Z,13.53
2018-03-31T16:00:54.820Z,12.77
2018-03-31T16:03:23.780Z,12.93
2018-03-31T16:05:51.308Z,13.40
2018-03-31T16:08:19.014Z,14.37
2018-03-31T16:10:46.521Z,14.20
2018-03-31T16:13:14.309Z,14.37
2018-03-31T16:15:42.689Z,14.40
2018-03-31T16:18:10.176Z,14.80
2018-03-31T16:20:37.669Z,14.13
2018-03-31T16:23:05.140Z,15.10
2018-03-31T16:25:33.020Z,15.80
2018-03-31T16:28:00.535Z,16.10
2018-03-31T16:30:29.490Z,15.37
2018-03-31T16:32:57.335Z,16.70
2018-03-31T16:35:24.921Z,18.73
2018-03-31T16:37:52.409Z,17.17
2018-03-31T16:40:20.125Z,16.53
2018-03-31T16:42:47.604Z,18.27
2018-03-31T16:45:15.123Z,34.57
2018-03-31T16:47:42.702Z,44.10
2018-03-31T16:50:10.900Z,16.63
2018-03-31T16:52:38.404Z,16.10
2018-03-31T16:55:07.789Z,15.30
2018-03-31T16:57:35.263Z,16.00
2018-03-31T17:00:03.557Z,16.17
2018-03-31T17:02:31.160Z,19.57
2018-03-31T17:04:59.527Z,18.13
2018-03-31T17:07:27.088Z,14.43
2018-03-31T17:09:55.082Z,14.40
2018-03-31T17:12:22.561Z,15.47
2018-03-31T17:14:51.273Z,16.67
2018-03-31T17:17:18.813Z,18.03
2018-03-31T17:19:47.081Z,16.67
2018-03-31T17:22:14.576Z,15.17
2018-03-31T17:24:42.664Z,11.63
2018-03-31T17:27:10.736Z,13.30
2018-03-31T17:29:38.643Z,15.10
2018-03-31T17:32:07.068Z,13.43
2018-03-31T17:34:35.050Z,11.30
2018-03-31T17:37:02.632Z,13.53
2018-03-31T17:39:30.174Z,16.00
2018-03-31T17:41:58.487Z,20.00
2018-03-31T17:44:25.986Z,14.17
2018-03-31T17:46:54.261Z,16.23
2018-03-31T17:49:23.381Z,16.70
2018-03-31T17:51:50.868Z,18.57
2018-03-31T17:54:18.937Z,16.60
2018-03-31T17:56:47.225Z,13.30
2018-03-31T17:59:14.712Z,12.90
2018-03-31T18:01:43.784Z,13.07
2018-03-31T18:04:11.268Z,13.20
2018-03-31T18:06:38.781Z,12.50
2018-03-31T18:09:06.349Z,17.03
2018-03-31T18:11:34.624Z,14.47
2018-03-31T18:14:03.120Z,12.40
2018-03-31T18:16:31.863Z,13.17
2018-03-31T18:19:00.655Z,11.60
2018-03-31T18:21:28.140Z,12.60
2018-03-31T18:23:57.741Z,11.27
2018-03-31T18:26:25.272Z,12.40
2018-03-31T18:28:53.958Z,11.67
2018-03-31T18:31:21.646Z,13.07
2018-03-31T18:33:49.330Z,13.90
2018-03-31T18:36:16.836Z,11.83
2018-03-31T18:38:45.570Z,11.80
2018-03-31T18:41:13.087Z,12.80
2018-03-31T18:43:41.341Z,13.40
2018-03-31T18:46:09.697Z,12.77
2018-03-31T18:48:37.970Z,12.33
2018-03-31T18:51:05.495Z,12.20
2018-03-31T18:53:32.978Z,12.10
2018-03-31T18:56:00.485Z,11.50
2018-03-31T18:58:29.158Z,12.67
2018-03-31T19:00:56.859Z,12.10
2018-03-31T19:03:25.121Z,11.40
2018-03-31T19:05:53.074Z,12.13
2018-03-31T19:08:20.572Z,13.50
2018-03-31T19:10:48.090Z,13.03
2018-03-31T19:13:16.447Z,12.30
2018-03-31T19:15:43.953Z,12.27
2018-03-31T19:18:12.220Z,11.83
2018-03-31T19:20:39.705Z,12.53
2018-03-31T19:23:07.222Z,13.87
2018-03-31T19:25:35.731Z,13.83
2018-03-31T19:28:03.981Z,11.83
2018-03-31T19:30:37.005Z,11.57
2018-03-31T19:33:05.467Z,11.20
2018-03-31T19:35:38.469Z,12.60
2018-03-31T19:38:07.144Z,13.07
2018-03-31T19:40:34.940Z,11.40
2018-03-31T19:43:02.520Z,12.80
2018-03-31T19:45:30.017Z,12.70
2018-03-31T19:47:57.493Z,12.13
2018-03-31T19:50:25.828Z,12.97
2018-03-31T19:52:53.404Z,13.10
2018-03-31T19:55:20.880Z,14.13
2018-03-31T19:57:48.445Z,12.30
2018-03-31T20:00:15.964Z,13.97
2018-03-31T20:02:43.857Z,14.43
2018-03-31T20:05:12.528Z,14.60
2018-03-31T20:07:40.155Z,15.40
2018-03-31T20:10:08.152Z,15.57
2018-03-31T20:12:36.540Z,15.50
2018-03-31T20:15:04.106Z,15.07
2018-03-31T20:17:31.941Z,15.60
2018-03-31T20:19:59.527Z,15.30
2018-03-31T20:22:27.844Z,14.57
2018-03-31T20:24:55.351Z,15.90
2018-03-31T20:27:22.844Z,15.23
2018-03-31T20:29:50.400Z,14.93
2018-03-31T20:32:18.813Z,15.07
2018-03-31T20:34:47.115Z,14.60
2018-03-31T20:37:15.315Z,15.53
2018-03-31T20:39:43.656Z,14.93
2018-03-31T20:42:11.920Z,15.30
2018-03-31T20:44:40.826Z,16.63
2018-03-31T20:47:09.152Z,16.80
2018-03-31T20:49:36.634Z,16.80
2018-03-31T20:52:05.104Z,14.70
2018-03-31T20:54:32.615Z,16.10
2018-03-31T20:57:00.097Z,15.70
2018-03-31T20:59:27.572Z,16.70
2018-03-31T21:01:55.148Z,14.50
2018-03-31T21:04:22.770Z,15.73
2018-03-31T21:06:52.168Z,15.40
2018-03-31T21:09:19.694Z,13.93
2018-03-31T21:11:47.175Z,14.33
2018-03-31T21:14:14.658Z,17.83
2018-03-31T21:16:42.158Z,16.17
2018-03-31T21:19:09.727Z,15.13
2018-03-31T21:21:37.292Z,14.60
2018-03-31T21:24:04.799Z,14.63
2018-03-31T21:26:32.737Z,14.57
2018-03-31T21:29:00.599Z,15.50
2018-03-31T21:31:28.845Z,14.43
2018-03-31T21:33:56.340Z,14.70
2018-03-31T21:36:25.504Z,14.20
2018-03-31T21:38:53.000Z,13.80
2018-03-31T21:41:21.277Z,14.73
2018-03-31T21:43:49.552Z,14.57
2018-03-31T21:46:17.833Z,14.10
2018-03-31T21:48:46.858Z,13.73
2018-03-31T21:51:14.339Z,15.27
2018-03-31T21:53:41.839Z,13.57
2018-03-31T21:56:10.117Z,14.23
2018-03-31T21:58:37.632Z,14.27
2018-03-31T22:01:05.319Z,14.93
2018-03-31T22:03:33.642Z,12.20
2018-03-31T22:06:01.142Z,13.40
2018-03-31T22:08:28.642Z,15.10
2018-03-31T22:10:56.915Z,12.73
2018-03-31T22:13:33.611Z,14.47
2018-03-31T22:16:02.152Z,13.90
2018-03-31T22:18:29.652Z,13.20
2018-03-31T22:20:57.129Z,13.67
2018-03-31T22:23:24.645Z,14.60
2018-03-31T22:25:52.494Z,16.40
2018-03-31T22:28:19.990Z,17.60
2018-03-31T22:30:47.474Z,15.47
2018-03-31T22:33:14.958Z,17.00
2018-03-31T22:35:42.492Z,16.00
2018-03-31T22:38:10.589Z,15.03
2018-03-31T22:40:38.094Z,19.00
2018-03-31T22:43:06.365Z,30.00
2018-03-31T22:45:35.532Z,19.93
2018-03-31T22:48:03.290Z,25.90
2018-03-31T22:50:30.852Z,34.87
2018-03-31T22:52:58.341Z,25.07
2018-03-31T22:55:26.053Z,19.50
2018-03-31T22:57:53.552Z,16.03
2018-03-31T23:00:21.041Z,17.37
2018-03-31T23:02:49.368Z,15.67
2018-03-31T23:05:17.166Z,16.80
2018-03-31T23:07:44.651Z,17.67
2018-03-31T23:10:12.158Z,17.43
2018-03-31T23:12:39.683Z,16.07
2018-03-31T23:15:07.422Z,15.80
2018-03-31T23:17:35.790Z,15.77
2018-03-31T23:20:03.436Z,16.00
2018-03-31T23:22:30.930Z,15.10
2018-03-31T23:25:00.083Z,13.07
2018-03-31T23:27:27.628Z,14.03
2018-03-31T23:29:55.131Z,15.33
2018-03-31T23:32:23.368Z,13.00
2018-03-31T23:34:51.440Z,13.90
2018-03-31T23:37:19.510Z,13.40
2018-03-31T23:39:47.017Z,13.90
2018-03-31T23:42:15.290Z,14.43
2018-03-31T23:44:42.772Z,13.70
2018-03-31T23:47:10.316Z,14.47
2018-03-31T23:49:38.560Z,13.60
2018-03-31T23:52:06.060Z,13.00
2018-03-31T23:54:34.380Z,14.60
2018-03-31T23:57:01.964Z,13.27
2018-03-31T23:59:29.594Z,13.20
